KFVE

Details ICAO KFVE (WFK)
Name NORTHERN AROOSTOOK RGNL
Region United States
Timezone America/New_York (UTC-5.0)
Plans Departing 5
Arriving 8
Stats Elevation 988 ft / 301 m (AMSL)
Location 47.285504° -68.312735°
Runways 1
Magnetic Variation 17.122° W
Sunrise 2017-12-16 12:15:45 UTC / 2017-12-16 07:15:45 Local
Sunset 2017-12-16 20:44:58 UTC / 2017-12-16 15:44:58 Local
Advertisement - Login to hide

Runways

ID Width Length Bearing (true) Bearing (mag) Surface Threshold Offset Overrun Length
14 75 ft / 23 m 4,591 ft / 1,399 m 115.59° 132.71° Asphalt 0 ft / 0 m 0 ft / 0 m
32 75 ft / 23 m 4,591 ft / 1,399 m 295.61° 312.73° Asphalt 0 ft / 0 m 0 ft / 0 m

Map

Weather


0- 5 10 15 20 25 30 35+ Temperature / ° C

Clouds and Precipitation
Forecast for 2017-12-16 12:00 UTC. Updated 8 minutes ago

Ground ~20,000 ft ~40,000 ft Winds

METAR

KFVE 160653Z AUTO 00000KT 10SM OVC036 M15/M18 A2973 RMK AO2 SLP088 T11501178

TAF

TAF KFVE 160525Z 1606/1706 VRB03KT P6SM VCSH OVC035 FM161800 32008KT P6SM SCT100

Frequencies

Recorded 135.72 MHz ASOS
Unicom 122.80 MHz CTAF/UNICOM
Warning: Do not use this data for real-world aviation or navigation. No guarantee of current accuracy is given.